createdAt,value
2022-11-16T00:02:06.475Z,59.90
2022-11-16T00:04:39.333Z,57.80
2022-11-16T00:07:12.198Z,53.30
2022-11-16T00:09:44.392Z,48.50
2022-11-16T00:12:16.760Z,48.50
2022-11-16T00:14:48.972Z,46.10
2022-11-16T00:17:21.297Z,44.30
2022-11-16T00:22:23.982Z,41.60
2022-11-16T00:24:56.236Z,38.40
2022-11-16T00:27:28.312Z,37.80
2022-11-16T00:32:31.525Z,40.30
2022-11-16T00:35:03.908Z,47.60
2022-11-16T00:37:36.059Z,42.10
2022-11-16T00:42:39.779Z,40.60
2022-11-16T00:45:13.051Z,41.50
2022-11-16T00:47:45.135Z,40.00
2022-11-16T00:50:18.196Z,42.50
2022-11-16T00:52:50.334Z,40.70
2022-11-16T00:55:22.970Z,40.70
2022-11-16T00:57:55.140Z,33.90
2022-11-16T01:00:28.843Z,38.10
2022-11-16T01:05:31.851Z,33.80
2022-11-16T01:08:04.485Z,37.40
2022-11-16T01:10:36.902Z,37.60
2022-11-16T01:13:09.052Z,36.30
2022-11-16T01:15:48.130Z,42.80
2022-11-16T01:18:20.329Z,41.60
2022-11-16T01:20:53.747Z,42.90
2022-11-16T01:23:26.145Z,38.70
2022-11-16T01:26:01.890Z,37.80
2022-11-16T01:28:35.860Z,36.80
2022-11-16T01:31:09.428Z,37.10
2022-11-16T01:33:42.778Z,36.90
2022-11-16T01:36:24.359Z,34.30
2022-11-16T01:38:57.792Z,33.20
2022-11-16T01:41:33.634Z,32.20
2022-11-16T01:44:46.416Z,31.80
2022-11-16T01:47:21.487Z,33.50
2022-11-16T01:49:57.324Z,33.60
2022-11-16T01:52:37.899Z,33.00
2022-11-16T01:55:11.135Z,30.50
2022-11-16T01:57:51.732Z,28.00
2022-11-16T02:00:25.154Z,28.80
2022-11-16T02:03:02.908Z,27.30
2022-11-16T02:09:49.970Z,25.00
2022-11-16T02:12:40.097Z,27.30
2022-11-16T02:15:21.871Z,24.20
2022-11-16T02:18:15.846Z,27.30
2022-11-16T02:20:58.881Z,26.70
2022-11-16T02:23:53.838Z,27.60
2022-11-16T02:26:44.006Z,26.50
2022-11-16T02:29:23.125Z,28.30
2022-11-16T02:32:03.375Z,30.60
2022-11-16T02:34:40.226Z,29.00
2022-11-16T02:37:15.349Z,27.90
2022-11-16T02:39:51.001Z,26.10
2022-11-16T02:42:27.300Z,25.20
2022-11-16T02:45:01.730Z,27.30
2022-11-16T02:47:36.772Z,27.60
2022-11-16T02:50:15.892Z,27.50
2022-11-16T02:52:48.100Z,27.40
2022-11-16T02:55:20.460Z,27.50
2022-11-16T03:00:28.351Z,27.80
2022-11-16T03:03:10.186Z,27.50
2022-11-16T03:05:46.758Z,30.60
2022-11-16T03:08:26.507Z,30.40
2022-11-16T03:11:20.021Z,27.40
2022-11-16T03:13:53.368Z,29.00
2022-11-16T03:16:32.584Z,27.90
2022-11-16T03:19:09.191Z,29.70
2022-11-16T03:21:46.644Z,25.70
2022-11-16T03:24:19.251Z,27.10
2022-11-16T03:26:58.071Z,29.30
2022-11-16T03:29:34.534Z,29.30
2022-11-16T03:32:20.465Z,31.60
2022-11-16T03:35:00.270Z,30.30
2022-11-16T03:37:35.113Z,28.60
2022-11-16T03:40:09.521Z,28.50
2022-11-16T03:42:43.010Z,29.50
2022-11-16T03:45:17.154Z,29.00
2022-11-16T03:47:49.310Z,28.00
2022-11-16T03:50:21.745Z,29.40
2022-11-16T03:52:53.859Z,29.80
2022-11-16T03:57:57.039Z,28.70
2022-11-16T04:00:29.643Z,29.60
2022-11-16T04:03:01.822Z,27.40
2022-11-16T04:05:51.778Z,29.30
2022-11-16T04:08:41.928Z,28.60
2022-11-16T04:11:33.454Z,30.90
2022-11-16T04:14:23.904Z,30.60
2022-11-16T04:17:13.906Z,31.20
2022-11-16T04:20:03.740Z,31.20
2022-11-16T04:22:59.419Z,30.80
2022-11-16T04:25:36.558Z,32.30
2022-11-16T04:28:16.339Z,34.90
2022-11-16T04:31:16.971Z,33.70
2022-11-16T04:34:13.995Z,35.30
2022-11-16T04:37:07.972Z,31.90
2022-11-16T04:39:40.341Z,38.30
2022-11-16T04:42:20.080Z,38.80
2022-11-16T04:45:12.166Z,38.90
2022-11-16T04:47:53.566Z,39.00
2022-11-16T04:50:27.947Z,38.00
2022-11-16T04:53:01.177Z,34.80
2022-11-16T04:55:34.280Z,35.10
2022-11-16T04:58:07.093Z,35.80
2022-11-16T05:00:39.455Z,35.30
2022-11-16T05:03:11.656Z,35.50
2022-11-16T05:05:44.153Z,33.90
2022-11-16T05:10:51.399Z,34.00
2022-11-16T05:13:24.190Z,34.10
2022-11-16T05:15:57.482Z,31.60
2022-11-16T05:18:31.128Z,34.90
2022-11-16T05:21:04.360Z,35.60
2022-11-16T05:23:58.891Z,37.70
2022-11-16T05:26:34.180Z,39.00
2022-11-16T05:29:07.483Z,39.00
2022-11-16T05:31:40.692Z,40.40
2022-11-16T05:34:14.062Z,39.40
2022-11-16T05:36:46.366Z,40.30
2022-11-16T05:41:49.643Z,39.00
2022-11-16T05:44:21.895Z,40.20
2022-11-16T05:49:25.301Z,39.50
2022-11-16T05:51:58.181Z,42.90
2022-11-16T05:57:01.201Z,42.20
2022-11-16T05:59:33.684Z,39.20
2022-11-16T06:04:37.889Z,39.60
2022-11-16T06:07:10.456Z,38.90
2022-11-16T06:09:43.844Z,39.00
2022-11-16T06:12:21.086Z,36.30
2022-11-16T06:14:53.557Z,40.00
2022-11-16T06:17:26.713Z,35.40
2022-11-16T06:22:29.507Z,35.60
2022-11-16T06:25:01.750Z,34.80
2022-11-16T06:27:34.089Z,35.90
2022-11-16T06:32:38.219Z,36.60
2022-11-16T06:35:11.376Z,32.90
2022-11-16T06:37:43.908Z,36.30
2022-11-16T06:40:16.045Z,34.40
2022-11-16T06:42:48.893Z,33.90
2022-11-16T06:45:22.209Z,35.40
2022-11-16T06:47:56.235Z,32.80
2022-11-16T06:50:29.187Z,33.30
2022-11-16T06:53:01.938Z,34.70
2022-11-16T06:55:34.658Z,35.00
2022-11-16T06:58:08.285Z,35.70
2022-11-16T07:00:41.175Z,33.70
2022-11-16T07:03:14.885Z,32.90
2022-11-16T07:08:20.006Z,31.10
2022-11-16T07:10:52.617Z,34.80
2022-11-16T07:13:24.882Z,31.30
2022-11-16T07:16:01.387Z,31.30
2022-11-16T07:18:37.812Z,32.20
2022-11-16T07:21:12.396Z,32.20
2022-11-16T07:23:44.909Z,31.00
2022-11-16T07:26:20.837Z,34.30
2022-11-16T07:31:34.868Z,32.60
2022-11-16T07:34:25.572Z,31.70
2022-11-16T07:37:07.983Z,30.40
2022-11-16T07:39:40.238Z,30.00
2022-11-16T07:42:13.556Z,28.90
2022-11-16T07:45:12.204Z,29.20
2022-11-16T07:47:52.423Z,30.10
2022-11-16T07:50:41.766Z,30.90
2022-11-16T07:55:44.765Z,27.60
2022-11-16T07:58:18.573Z,28.90
2022-11-16T08:03:24.657Z,30.70
2022-11-16T08:06:03.802Z,31.20
2022-11-16T08:08:36.771Z,30.70
2022-11-16T08:11:10.780Z,29.90
2022-11-16T08:13:44.230Z,28.80
2022-11-16T08:16:20.098Z,29.40
2022-11-16T08:18:53.099Z,29.10
2022-11-16T08:21:25.333Z,30.50
2022-11-16T08:23:58.879Z,28.50
2022-11-16T08:26:31.751Z,29.00
2022-11-16T08:29:09.101Z,30.20
2022-11-16T08:31:44.667Z,28.30
2022-11-16T08:34:19.657Z,29.30
2022-11-16T08:36:55.139Z,29.20
2022-11-16T08:39:31.679Z,27.70
2022-11-16T08:42:04.658Z,28.50
2022-11-16T08:44:36.763Z,27.20
2022-11-16T08:47:11.645Z,27.00
2022-11-16T08:49:49.658Z,27.50
2022-11-16T08:52:22.878Z,26.40
2022-11-16T08:54:55.761Z,28.30
2022-11-16T08:57:28.207Z,28.40
2022-11-16T09:00:03.371Z,29.20
2022-11-16T09:02:35.567Z,28.50
2022-11-16T09:07:45.801Z,27.40
2022-11-16T09:10:19.172Z,26.10
2022-11-16T09:12:51.581Z,27.90
2022-11-16T09:15:23.753Z,25.50
2022-11-16T09:20:27.535Z,26.00
2022-11-16T09:22:59.765Z,24.70
2022-11-16T09:25:31.968Z,24.90
2022-11-16T09:28:04.189Z,26.80
2022-11-16T09:33:06.965Z,26.30
2022-11-16T09:38:10.005Z,25.20
2022-11-16T09:40:46.298Z,26.10
2022-11-16T09:43:30.061Z,26.50
2022-11-16T09:46:12.224Z,25.70
2022-11-16T09:51:17.878Z,26.40
2022-11-16T09:53:56.564Z,23.00
2022-11-16T09:56:33.411Z,26.30
2022-11-16T09:59:16.732Z,24.00
2022-11-16T10:01:55.980Z,21.70
2022-11-16T10:04:38.585Z,23.30
2022-11-16T10:07:17.349Z,20.80
2022-11-16T10:09:50.556Z,19.90
2022-11-16T10:12:28.948Z,20.30
2022-11-16T10:15:30.270Z,21.50
2022-11-16T10:18:23.454Z,19.80
2022-11-16T10:21:13.088Z,21.00
2022-11-16T10:24:01.611Z,20.70
2022-11-16T10:26:42.200Z,18.30
2022-11-16T10:29:33.772Z,14.60
2022-11-16T10:32:17.806Z,13.80
2022-11-16T10:34:54.121Z,16.50
2022-11-16T10:37:32.552Z,14.10
2022-11-16T10:40:16.598Z,16.90
2022-11-16T10:42:54.933Z,16.40
2022-11-16T10:45:33.950Z,16.30
2022-11-16T10:48:15.794Z,16.50
2022-11-16T10:50:50.521Z,16.50
2022-11-16T10:53:33.884Z,15.10
2022-11-16T10:56:17.495Z,16.80
2022-11-16T10:58:55.250Z,14.90
2022-11-16T11:01:39.363Z,16.60
2022-11-16T11:04:20.342Z,15.50
2022-11-16T11:06:55.025Z,16.90
2022-11-16T11:09:31.523Z,14.80
2022-11-16T11:12:34.793Z,15.20
2022-11-16T11:15:25.545Z,15.10
2022-11-16T11:18:19.480Z,13.00
2022-11-16T11:20:54.140Z,15.50
2022-11-16T11:23:28.882Z,16.10
2022-11-16T11:26:02.396Z,14.90
2022-11-16T11:28:37.865Z,15.70
2022-11-16T11:31:13.863Z,13.40
2022-11-16T11:33:53.617Z,16.10
2022-11-16T11:36:28.495Z,14.70
2022-11-16T11:39:05.432Z,12.90
2022-11-16T11:41:39.939Z,12.80
2022-11-16T11:44:19.838Z,13.50
2022-11-16T11:47:42.468Z,14.10
2022-11-16T11:49:53.521Z,13.20
2022-11-16T11:52:31.213Z,14.50
2022-11-16T11:55:06.665Z,13.80
2022-11-16T11:57:46.807Z,13.60
2022-11-16T12:00:20.923Z,15.00
2022-11-16T12:03:11.991Z,14.10
2022-11-16T12:06:03.927Z,14.10
2022-11-16T12:08:54.921Z,14.50
2022-11-16T12:11:34.782Z,13.20
2022-11-16T12:14:19.351Z,12.70
2022-11-16T12:17:01.759Z,13.20
2022-11-16T12:20:03.980Z,13.80
2022-11-16T12:23:06.336Z,12.90
2022-11-16T12:25:45.899Z,12.80
2022-11-16T12:28:30.135Z,13.90
2022-11-16T12:31:20.157Z,13.50
2022-11-16T12:34:01.100Z,12.50
2022-11-16T12:36:41.615Z,12.00
2022-11-16T12:39:23.941Z,10.50
2022-11-16T12:42:23.493Z,45.00
2022-11-16T12:45:15.855Z,13.20
2022-11-16T12:48:09.353Z,10.30
2022-11-16T12:50:51.628Z,11.10
2022-11-16T12:53:44.831Z,11.60
2022-11-16T12:56:26.429Z,10.10
2022-11-16T12:59:17.072Z,10.20
2022-11-16T13:02:00.815Z,9.70
2022-11-16T13:04:38.350Z,10.80
2022-11-16T13:07:16.555Z,9.70
2022-11-16T13:09:57.053Z,9.50
2022-11-16T13:12:31.694Z,8.80
2022-11-16T13:15:06.119Z,7.30
2022-11-16T13:17:41.386Z,8.30
2022-11-16T13:20:29.280Z,9.30
2022-11-16T13:23:06.524Z,8.60
2022-11-16T13:25:46.425Z,9.30
2022-11-16T13:28:33.141Z,8.40
2022-11-16T13:31:12.464Z,8.40
2022-11-16T13:33:51.206Z,7.60
2022-11-16T13:36:45.402Z,8.00
2022-11-16T13:39:42.013Z,7.80
2022-11-16T13:42:17.014Z,7.70
2022-11-16T13:44:51.661Z,7.40
2022-11-16T13:47:27.384Z,6.90
2022-11-16T13:50:02.632Z,6.80
2022-11-16T13:53:36.483Z,7.30
2022-11-16T13:55:46.338Z,7.10
2022-11-16T13:58:24.657Z,7.20
2022-11-16T14:01:03.230Z,6.60
2022-11-16T14:03:39.602Z,7.00
2022-11-16T14:06:55.870Z,7.00
2022-11-16T14:09:49.375Z,12.00
2022-11-16T14:12:58.570Z,8.70
2022-11-16T14:15:36.071Z,7.40
2022-11-16T14:18:37.307Z,6.40
2022-11-16T14:21:36.314Z,6.20
2022-11-16T14:24:23.383Z,6.70
2022-11-16T14:27:07.974Z,6.90
2022-11-16T14:29:55.464Z,6.80
2022-11-16T14:32:32.321Z,6.90
2022-11-16T14:35:08.934Z,12.50
2022-11-16T14:37:43.009Z,10.30
2022-11-16T14:40:20.292Z,8.80
2022-11-16T14:45:51.094Z,7.30
2022-11-16T14:48:26.181Z,7.30
2022-11-16T14:51:10.868Z,7.50
2022-11-16T14:53:47.099Z,7.70
2022-11-16T14:56:20.460Z,7.00
2022-11-16T14:58:57.645Z,9.40
2022-11-16T15:01:32.825Z,8.70
2022-11-16T15:04:08.318Z,10.10
2022-11-16T15:06:44.869Z,12.60
2022-11-16T15:09:26.191Z,10.20
2022-11-16T15:12:18.267Z,9.90
2022-11-16T15:14:53.007Z,8.50
2022-11-16T15:17:33.047Z,7.80
2022-11-16T15:20:15.863Z,7.80
2022-11-16T15:22:51.845Z,7.30
2022-11-16T15:25:31.195Z,8.10
2022-11-16T15:28:07.096Z,6.40
2022-11-16T15:30:41.225Z,6.50
2022-11-16T15:33:18.192Z,7.50
2022-11-16T15:35:55.551Z,6.50
2022-11-16T15:38:30.809Z,6.90
2022-11-16T15:41:06.162Z,7.90
2022-11-16T15:43:55.312Z,7.50
2022-11-16T15:46:36.722Z,7.80
2022-11-16T15:49:15.630Z,9.10
2022-11-16T15:51:47.902Z,7.00
2022-11-16T15:57:00.006Z,8.70
2022-11-16T15:59:35.621Z,7.40
2022-11-16T16:02:16.569Z,7.60
2022-11-16T16:04:48.814Z,8.30
2022-11-16T16:07:41.391Z,7.10
2022-11-16T16:12:57.260Z,7.10
2022-11-16T16:15:33.855Z,8.90
2022-11-16T16:18:35.050Z,7.90
2022-11-16T16:21:07.507Z,6.90
2022-11-16T16:23:48.532Z,7.80
2022-11-16T16:26:22.029Z,7.20
2022-11-16T16:28:54.070Z,8.90
2022-11-16T16:31:26.615Z,7.10
2022-11-16T16:33:59.944Z,7.10
2022-11-16T16:36:32.149Z,9.10
2022-11-16T16:41:34.949Z,8.20
2022-11-16T16:44:15.622Z,6.60
2022-11-16T16:46:48.019Z,6.80
2022-11-16T16:49:20.133Z,6.70
2022-11-16T16:54:23.216Z,6.40
2022-11-16T16:56:55.693Z,6.60
2022-11-16T16:59:30.047Z,6.50
2022-11-16T17:02:02.347Z,5.90
2022-11-16T17:04:34.896Z,5.90
2022-11-16T17:07:07.061Z,6.60
2022-11-16T17:09:39.542Z,6.00
2022-11-16T17:14:43.285Z,6.20
2022-11-16T17:19:45.824Z,5.80
2022-11-16T17:22:18.054Z,5.30
2022-11-16T17:27:20.939Z,5.20
2022-11-16T17:29:52.995Z,6.00
2022-11-16T17:32:25.305Z,6.30
2022-11-16T17:34:57.370Z,5.30
2022-11-16T17:40:00.420Z,5.40
2022-11-16T17:42:35.687Z,6.40
2022-11-16T17:45:09.024Z,5.00
2022-11-16T17:47:41.265Z,5.40
2022-11-16T17:52:44.681Z,4.70
2022-11-16T17:57:49.106Z,4.90
2022-11-16T18:00:22.712Z,5.00
2022-11-16T18:02:54.972Z,5.40
2022-11-16T18:05:27.464Z,5.10
2022-11-16T18:10:30.574Z,4.60
2022-11-16T18:13:02.674Z,4.70
2022-11-16T18:18:14.640Z,3.90
2022-11-16T18:20:50.891Z,4.60
2022-11-16T18:23:23.299Z,4.70
2022-11-16T18:25:55.518Z,4.30
2022-11-16T18:31:05.161Z,4.20
2022-11-16T18:33:39.549Z,3.60
2022-11-16T18:36:13.268Z,4.40
2022-11-16T18:38:45.962Z,4.30
2022-11-16T18:41:20.332Z,4.30
2022-11-16T18:43:54.243Z,4.10
2022-11-16T18:46:28.645Z,3.90
2022-11-16T18:49:01.128Z,4.20
2022-11-16T18:51:33.475Z,4.20
2022-11-16T18:54:05.908Z,3.80
2022-11-16T18:56:38.536Z,4.50
2022-11-16T18:59:10.678Z,4.20
2022-11-16T19:01:42.768Z,3.40
2022-11-16T19:06:45.553Z,3.50
2022-11-16T19:11:48.057Z,3.30
2022-11-16T19:14:20.217Z,3.50
2022-11-16T19:16:56.929Z,3.30
2022-11-16T19:19:30.889Z,3.70
2022-11-16T19:22:03.187Z,3.40
2022-11-16T19:27:06.379Z,2.40
2022-11-16T19:29:38.500Z,3.00
2022-11-16T19:34:42.109Z,2.50
2022-11-16T19:37:15.200Z,2.60
2022-11-16T19:39:47.595Z,2.50
2022-11-16T19:42:19.704Z,2.80
2022-11-16T19:47:24.249Z,2.80
2022-11-16T19:49:56.300Z,3.00
2022-11-16T19:52:28.543Z,3.20
2022-11-16T19:57:31.044Z,2.80
2022-11-16T20:00:03.158Z,3.30
2022-11-16T20:02:38.964Z,2.60
2022-11-16T20:05:13.006Z,3.20
2022-11-16T20:07:48.507Z,3.50
2022-11-16T20:10:21.014Z,3.80
2022-11-16T20:12:53.528Z,3.90
2022-11-16T20:17:58.561Z,4.10
2022-11-16T20:20:30.665Z,3.90
2022-11-16T20:23:03.101Z,3.60
2022-11-16T20:25:41.008Z,4.20
2022-11-16T20:28:13.411Z,3.90
2022-11-16T20:30:49.383Z,4.10
2022-11-16T20:33:21.565Z,4.00
2022-11-16T20:36:00.633Z,4.00
2022-11-16T20:38:34.864Z,3.60
2022-11-16T20:41:15.200Z,5.40
2022-11-16T20:43:48.522Z,4.30
2022-11-16T20:46:22.524Z,3.80
2022-11-16T20:48:55.952Z,4.40
2022-11-16T20:51:28.900Z,4.20
2022-11-16T20:54:01.256Z,4.50
2022-11-16T20:56:33.459Z,4.00
2022-11-16T20:59:05.583Z,4.80
2022-11-16T21:01:37.782Z,4.60
2022-11-16T21:06:43.302Z,4.80
2022-11-16T21:09:22.550Z,4.50
2022-11-16T21:12:12.823Z,3.70
2022-11-16T21:14:45.057Z,4.30
2022-11-16T21:17:17.107Z,4.50
2022-11-16T21:22:39.943Z,4.10
2022-11-16T21:25:12.622Z,4.30
2022-11-16T21:27:44.807Z,4.70
2022-11-16T21:30:17.891Z,4.10
2022-11-16T21:32:49.998Z,4.50
2022-11-16T21:37:53.384Z,5.00
2022-11-16T21:40:25.548Z,4.80
2022-11-16T21:42:57.639Z,4.70
2022-11-16T21:48:00.220Z,4.70
2022-11-16T21:50:32.639Z,4.30
2022-11-16T21:53:05.080Z,3.80
2022-11-16T21:55:37.442Z,4.80
2022-11-16T21:58:09.455Z,5.20
2022-11-16T22:00:41.741Z,4.10
2022-11-16T22:06:01.680Z,4.50
2022-11-16T22:08:33.999Z,4.60
2022-11-16T22:13:54.425Z,5.20
2022-11-16T22:18:57.171Z,5.00
2022-11-16T22:21:29.598Z,4.00
2022-11-16T22:24:02.767Z,4.60
2022-11-16T22:26:35.168Z,4.70
2022-11-16T22:31:38.052Z,5.00
2022-11-16T22:36:40.930Z,4.30
2022-11-16T22:41:43.609Z,4.60
2022-11-16T22:44:15.968Z,4.40
2022-11-16T22:49:19.013Z,5.00
2022-11-16T22:51:51.182Z,5.50
2022-11-16T22:57:00.728Z,5.10
2022-11-16T23:02:05.210Z,5.30
2022-11-16T23:04:37.295Z,5.20
2022-11-16T23:09:40.365Z,5.20
2022-11-16T23:15:18.573Z,5.00
2022-11-16T23:17:50.716Z,4.60
2022-11-16T23:20:40.225Z,5.60
2022-11-16T23:23:36.269Z,5.40
2022-11-16T23:26:33.107Z,5.90
2022-11-16T23:29:06.756Z,5.70
2022-11-16T23:31:39.450Z,5.30
2022-11-16T23:34:11.807Z,5.00
2022-11-16T23:39:15.640Z,5.30
2022-11-16T23:42:05.615Z,5.80
2022-11-16T23:44:37.917Z,5.50
2022-11-16T23:47:10.735Z,5.80
2022-11-16T23:49:43.069Z,5.90
2022-11-16T23:52:15.386Z,6.80
2022-11-16T23:57:18.419Z,6.00
